Time;durP1;ratioP1;P1;durP2;ratioP2;P2;SDS_P1;SDS_P2;PMS_P1;PMS_P2;Temp;Humidity;BMP_temperature;BMP_pressure;BME280_temperature;BME280_humidity;BME280_pressure;Samples;Min_cycle;Max_cycle;Signal;HPM_P1;HPM_P2
2021/09/09 00:01:05;;;;;;;10.57;9.50;;;25.70;51.60;;;;;;5008559;28;20194;-49
2021/09/09 00:03:30;;;;;;;10.60;9.70;;;25.80;51.60;;;;;;5009424;28;20197;-53
2021/09/09 00:05:56;;;;;;;9.60;8.80;;;25.80;51.50;;;;;;5007192;28;20202;-51
2021/09/09 00:08:22;;;;;;;9.80;9.00;;;25.80;51.40;;;;;;5006323;28;20206;-52
2021/09/09 00:10:47;;;;;;;9.40;8.57;;;25.70;51.60;;;;;;5004622;28;20680;-52
2021/09/09 00:13:13;;;;;;;8.40;7.60;;;25.80;51.40;;;;;;5008982;28;20856;-48
2021/09/09 00:15:39;;;;;;;9.83;8.90;;;25.70;52.00;;;;;;5006308;28;20650;-51
2021/09/09 00:18:04;;;;;;;10.83;9.73;;;25.70;51.60;;;;;;4998217;28;20238;-51
2021/09/09 00:20:30;;;;;;;9.83;9.03;;;25.60;51.60;;;;;;5006229;28;20205;-53
2021/09/09 00:22:55;;;;;;;9.93;9.03;;;25.60;51.70;;;;;;5009688;28;20204;-49
2021/09/09 00:25:21;;;;;;;10.30;9.40;;;25.70;51.70;;;;;;5004117;28;20202;-52
2021/09/09 00:27:47;;;;;;;10.33;9.27;;;25.60;51.60;;;;;;5006653;28;20993;-49
2021/09/09 00:30:13;;;;;;;9.60;8.80;;;25.60;51.90;;;;;;5008459;28;20265;-50
2021/09/09 00:32:38;;;;;;;10.00;9.10;;;25.60;51.60;;;;;;5008957;28;20862;-50
2021/09/09 00:35:04;;;;;;;8.27;7.60;;;25.60;51.70;;;;;;5009288;28;20483;-51
2021/09/09 00:37:30;;;;;;;9.30;8.50;;;25.60;51.80;;;;;;5004176;28;20190;-53
2021/09/09 00:39:55;;;;;;;9.23;8.33;;;25.60;51.80;;;;;;5009728;28;20846;-51
2021/09/09 00:42:21;;;;;;;10.43;9.43;;;25.60;51.90;;;;;;5009137;28;20197;-51
2021/09/09 00:44:47;;;;;;;10.50;8.27;;;25.60;52.00;;;;;;5006062;28;20672;-52
2021/09/09 00:47:13;;;;;;;9.30;8.47;;;25.60;51.90;;;;;;5002889;28;20194;-52
2021/09/09 00:49:41;;;;;;;9.10;8.30;;;25.60;51.80;;;;;;5004570;28;20704;-50
2021/09/09 00:52:11;;;;;;;9.37;8.47;;;25.60;51.90;;;;;;5009151;28;20527;-51
2021/09/09 00:54:37;;;;;;;10.47;8.80;;;25.60;52.00;;;;;;5005164;28;20500;-50
2021/09/09 00:57:04;;;;;;;9.57;8.70;;;25.50;51.90;;;;;;5012646;28;20854;-46
2021/09/09 00:59:33;;;;;;;9.43;8.63;;;25.50;52.00;;;;;;5012754;28;20518;-46
2021/09/09 01:01:58;;;;;;;10.10;9.13;;;25.60;51.90;;;;;;5007125;28;20440;-47
2021/09/09 01:04:24;;;;;;;9.00;8.20;;;25.60;52.00;;;;;;5011472;28;20429;-47
2021/09/09 01:06:50;;;;;;;9.80;8.80;;;25.50;52.00;;;;;;5004110;28;20240;-47
2021/09/09 01:09:16;;;;;;;9.20;8.30;;;25.60;51.90;;;;;;5010209;28;20464;-48
2021/09/09 01:11:42;;;;;;;9.83;8.93;;;25.40;52.00;;;;;;5011334;28;20308;-48
2021/09/09 01:14:10;;;;;;;10.80;9.80;;;25.40;52.30;;;;;;5012911;28;20241;-48
2021/09/09 01:16:37;;;;;;;9.90;8.90;;;25.40;52.10;;;;;;5009880;28;20200;-46
2021/09/09 01:19:04;;;;;;;9.67;8.83;;;25.40;52.10;;;;;;5013015;28;20519;-47
2021/09/09 01:21:30;;;;;;;9.40;8.57;;;25.40;52.10;;;;;;5012836;28;20438;-50
2021/09/09 01:23:58;;;;;;;9.97;8.90;;;25.20;52.40;;;;;;4999437;28;21938;-47
2021/09/09 01:26:27;;;;;;;9.57;8.63;;;25.10;52.80;;;;;;5011578;28;20437;-48
2021/09/09 01:28:57;;;;;;;9.60;8.23;;;25.00;53.10;;;;;;5011617;28;20433;-46
2021/09/09 01:31:23;;;;;;;9.17;8.27;;;25.10;53.00;;;;;;5011909;28;20479;-47
2021/09/09 01:33:54;;;;;;;9.70;8.80;;;25.00;53.00;;;;;;5012628;28;20801;-47
2021/09/09 01:36:19;;;;;;;9.93;8.93;;;25.10;52.80;;;;;;5010962;28;20479;-46
2021/09/09 01:38:45;;;;;;;9.13;8.30;;;25.10;53.00;;;;;;5011629;28;20429;-46
2021/09/09 01:41:10;;;;;;;9.03;8.13;;;25.10;52.90;;;;;;5010928;28;20273;-47
2021/09/09 01:43:36;;;;;;;10.50;8.57;;;25.00;53.20;;;;;;5012039;28;20197;-48
2021/09/09 01:46:02;;;;;;;9.30;7.73;;;25.10;53.00;;;;;;5012536;28;20731;-47
2021/09/09 01:48:27;;;;;;;9.93;8.47;;;25.00;53.20;;;;;;5009828;28;20190;-48
2021/09/09 01:50:53;;;;;;;8.90;8.10;;;25.00;53.20;;;;;;5009588;28;20231;-46
2021/09/09 01:53:18;;;;;;;9.20;8.30;;;25.00;53.10;;;;;;5007773;28;20277;-47
2021/09/09 01:55:44;;;;;;;9.83;8.83;;;25.00;53.50;;;;;;5008357;28;20194;-48
2021/09/09 01:58:09;;;;;;;9.17;8.37;;;25.10;52.90;;;;;;5005823;28;20238;-47
2021/09/09 02:00:35;;;;;;;9.47;8.57;;;25.10;52.70;;;;;;5006070;28;20308;-47
2021/09/09 02:03:01;;;;;;;9.80;8.97;;;25.20;52.80;;;;;;5002038;28;20193;-47
2021/09/09 02:05:26;;;;;;;9.13;8.30;;;25.20;52.80;;;;;;5010419;28;20235;-46
2021/09/09 02:07:52;;;;;;;9.50;8.57;;;25.20;52.70;;;;;;5009232;28;20205;-46
2021/09/09 02:10:20;;;;;;;9.20;8.47;;;25.20;52.60;;;;;;5010605;28;20193;-47
2021/09/09 02:12:48;;;;;;;9.13;8.33;;;25.30;52.60;;;;;;5009651;28;20299;-48
2021/09/09 02:15:13;;;;;;;9.60;8.70;;;25.10;53.20;;;;;;5006874;28;20437;-49
2021/09/09 02:17:39;;;;;;;9.30;8.47;;;25.20;52.70;;;;;;5008010;28;20437;-46
2021/09/09 02:20:06;;;;;;;9.47;8.67;;;25.20;52.50;;;;;;5012431;28;20277;-47
2021/09/09 02:22:32;;;;;;;10.03;9.13;;;25.20;52.40;;;;;;5008499;28;20189;-49
2021/09/09 02:24:57;;;;;;;8.90;8.00;;;25.20;52.60;;;;;;5010679;28;20499;-49
2021/09/09 02:27:23;;;;;;;9.63;8.83;;;25.10;52.70;;;;;;5006001;28;20190;-46
2021/09/09 02:29:48;;;;;;;9.47;8.53;;;25.10;52.70;;;;;;5010298;28;20223;-48
2021/09/09 02:32:14;;;;;;;10.63;9.63;;;25.20;52.70;;;;;;5011458;28;20234;-48
2021/09/09 02:34:40;;;;;;;9.47;8.57;;;25.10;52.90;;;;;;5010936;28;20197;-46
2021/09/09 02:37:05;;;;;;;10.03;9.03;;;25.10;52.90;;;;;;5010326;28;20205;-47
2021/09/09 02:39:31;;;;;;;12.93;8.87;;;25.20;52.70;;;;;;5007705;28;20256;-48
2021/09/09 02:41:57;;;;;;;10.43;9.23;;;25.20;52.50;;;;;;5004356;28;20240;-50
2021/09/09 02:44:23;;;;;;;15.60;9.97;;;25.20;52.60;;;;;;5004550;28;20834;-48
2021/09/09 02:46:48;;;;;;;9.70;9.00;;;25.00;52.90;;;;;;5005871;28;20240;-47
2021/09/09 02:49:14;;;;;;;9.40;8.60;;;25.00;53.00;;;;;;5006933;28;20725;-47
2021/09/09 02:51:39;;;;;;;9.63;8.83;;;25.00;53.00;;;;;;5008486;28;20275;-48
2021/09/09 02:54:05;;;;;;;9.33;8.53;;;25.00;53.00;;;;;;5007606;28;20221;-48
2021/09/09 02:56:32;;;;;;;12.13;9.83;;;24.90;53.00;;;;;;5006731;28;20194;-47
2021/09/09 02:58:58;;;;;;;9.50;8.67;;;25.00;53.00;;;;;;5007686;28;20232;-48
2021/09/09 03:01:25;;;;;;;10.13;9.20;;;25.00;53.00;;;;;;5007971;28;20448;-46
2021/09/09 03:03:51;;;;;;;9.70;8.80;;;25.10;52.80;;;;;;5006111;28;20807;-47
2021/09/09 03:06:17;;;;;;;9.10;8.30;;;25.10;52.70;;;;;;5008731;28;20461;-47
2021/09/09 03:08:42;;;;;;;9.00;8.13;;;25.00;52.80;;;;;;5008353;28;20304;-47
2021/09/09 03:11:08;;;;;;;9.10;8.30;;;25.00;52.70;;;;;;5006044;28;20213;-48
2021/09/09 03:13:34;;;;;;;9.70;8.90;;;25.00;52.80;;;;;;5008016;28;20587;-47
2021/09/09 03:15:59;;;;;;;9.60;8.70;;;25.00;52.90;;;;;;5005487;28;20193;-47
2021/09/09 03:18:25;;;;;;;8.87;8.13;;;25.00;52.80;;;;;;5007091;28;20190;-48
2021/09/09 03:20:52;;;;;;;9.03;8.33;;;24.90;53.00;;;;;;5006520;28;20205;-46
2021/09/09 03:23:18;;;;;;;8.60;7.80;;;24.90;53.00;;;;;;5007705;28;20222;-46
2021/09/09 03:25:44;;;;;;;9.60;8.80;;;24.90;53.00;;;;;;5007529;28;21017;-47
2021/09/09 03:28:09;;;;;;;9.93;9.00;;;24.90;52.90;;;;;;5005322;28;20444;-46
2021/09/09 03:30:35;;;;;;;10.23;9.20;;;25.00;53.00;;;;;;5006907;28;20784;-47
2021/09/09 03:33:01;;;;;;;9.90;8.90;;;24.90;52.90;;;;;;5006650;28;20265;-47
2021/09/09 03:35:26;;;;;;;9.53;8.40;;;24.90;52.90;;;;;;5006627;28;20989;-47
2021/09/09 03:37:52;;;;;;;9.70;8.70;;;24.90;53.10;;;;;;5007529;28;20194;-47
2021/09/09 03:40:18;;;;;;;9.83;9.03;;;25.00;52.90;;;;;;5005472;28;20190;-46
2021/09/09 03:42:43;;;;;;;9.77;8.77;;;24.90;53.00;;;;;;5007813;28;20206;-48
2021/09/09 03:45:09;;;;;;;9.90;8.37;;;24.80;53.10;;;;;;5004981;28;20200;-47
2021/09/09 03:47:35;;;;;;;10.53;9.67;;;24.80;53.10;;;;;;5006582;28;20304;-46
2021/09/09 03:50:00;;;;;;;9.53;8.60;;;24.80;53.20;;;;;;5004495;28;20488;-48
2021/09/09 03:52:26;;;;;;;9.53;8.63;;;24.80;53.10;;;;;;5006964;28;20253;-46
2021/09/09 03:54:51;;;;;;;9.40;8.60;;;24.70;53.40;;;;;;5007519;28;20198;-46
2021/09/09 03:57:17;;;;;;;10.43;9.53;;;24.80;53.30;;;;;;5005294;28;20197;-48
2021/09/09 03:59:43;;;;;;;9.03;8.33;;;24.70;53.40;;;;;;5004494;28;20238;-47
2021/09/09 04:02:08;;;;;;;10.27;8.93;;;24.80;53.30;;;;;;5006746;28;20240;-48
2021/09/09 04:04:34;;;;;;;9.77;8.83;;;24.70;53.20;;;;;;5007225;28;20198;-48
2021/09/09 04:06:59;;;;;;;9.83;8.80;;;24.70;53.60;;;;;;5006830;28;20275;-47
2021/09/09 04:09:25;;;;;;;10.47;9.47;;;24.60;53.50;;;;;;5005751;28;20202;-46
2021/09/09 04:11:51;;;;;;;9.37;8.57;;;24.70;53.50;;;;;;5006452;28;20308;-49
2021/09/09 04:14:17;;;;;;;9.90;9.00;;;24.70;53.60;;;;;;5006091;28;20625;-49
2021/09/09 04:16:43;;;;;;;11.00;9.20;;;24.70;53.60;;;;;;5006646;28;20209;-46
2021/09/09 04:19:08;;;;;;;9.30;8.40;;;24.60;53.50;;;;;;5005715;28;20437;-46
2021/09/09 04:21:34;;;;;;;9.87;8.97;;;24.70;53.30;;;;;;5007801;28;20197;-46
2021/09/09 04:23:59;;;;;;;10.20;9.20;;;24.80;53.50;;;;;;5005874;28;20205;-47
2021/09/09 04:26:25;;;;;;;10.07;9.17;;;24.70;53.20;;;;;;5005713;28;20193;-46
2021/09/09 04:28:51;;;;;;;10.83;9.83;;;24.70;53.10;;;;;;5007807;28;20222;-47
2021/09/09 04:31:16;;;;;;;9.20;8.40;;;24.50;53.60;;;;;;5010593;28;20217;-46
2021/09/09 04:33:42;;;;;;;10.80;9.17;;;24.50;53.70;;;;;;5007453;28;20293;-46
2021/09/09 04:36:08;;;;;;;9.47;8.67;;;24.50;53.80;;;;;;5011442;28;20197;-46
2021/09/09 04:38:33;;;;;;;9.67;8.73;;;24.50;53.80;;;;;;5010349;28;20277;-50
2021/09/09 04:40:59;;;;;;;9.87;8.87;;;24.40;53.90;;;;;;5010729;28;20200;-47
2021/09/09 04:43:25;;;;;;;9.80;8.80;;;24.30;54.00;;;;;;5009968;28;20650;-47
2021/09/09 04:45:50;;;;;;;8.97;8.17;;;24.30;54.00;;;;;;5010237;28;20244;-46
2021/09/09 04:48:16;;;;;;;12.93;9.60;;;24.30;54.30;;;;;;5009712;28;20194;-47
2021/09/09 04:50:42;;;;;;;9.93;9.03;;;24.30;54.50;;;;;;5010866;28;20202;-49
2021/09/09 04:53:08;;;;;;;10.40;9.40;;;24.20;54.50;;;;;;5010942;28;20226;-46
2021/09/09 04:55:33;;;;;;;11.17;10.23;;;24.20;54.60;;;;;;5010047;28;20201;-46
2021/09/09 04:57:59;;;;;;;10.90;9.80;;;23.90;55.10;;;;;;5008419;28;20283;-47
2021/09/09 05:00:24;;;;;;;10.87;9.80;;;23.70;55.40;;;;;;5011477;28;20256;-50
2021/09/09 05:02:50;;;;;;;10.30;9.20;;;23.80;55.70;;;;;;5011774;28;20228;-50
2021/09/09 05:05:16;;;;;;;9.60;8.40;;;23.80;55.50;;;;;;5010996;28;20206;-47
2021/09/09 05:07:42;;;;;;;14.40;9.53;;;23.80;55.70;;;;;;5010079;28;20658;-47
2021/09/09 05:10:09;;;;;;;10.40;9.40;;;23.80;55.60;;;;;;5009245;28;20244;-47
2021/09/09 05:12:35;;;;;;;12.20;10.93;;;23.90;55.40;;;;;;5010807;28;20484;-47
2021/09/09 05:15:00;;;;;;;9.20;8.30;;;23.90;55.20;;;;;;5008269;28;20444;-46
2021/09/09 05:17:26;;;;;;;14.90;11.10;;;23.90;55.30;;;;;;5011637;28;20613;-50
2021/09/09 05:19:51;;;;;;;12.23;10.50;;;24.00;55.10;;;;;;5013212;28;20212;-47
2021/09/09 05:22:17;;;;;;;13.77;9.90;;;23.90;55.30;;;;;;5006693;28;20190;-47
2021/09/09 05:24:43;;;;;;;10.40;9.40;;;24.00;55.20;;;;;;5001929;28;20634;-46
2021/09/09 05:27:08;;;;;;;10.83;9.73;;;24.00;54.90;;;;;;5009946;28;20205;-47
2021/09/09 05:29:34;;;;;;;11.63;10.00;;;24.00;54.70;;;;;;5005183;28;20202;-47
2021/09/09 05:31:59;;;;;;;13.90;9.90;;;24.10;54.60;;;;;;5010523;28;20313;-50
2021/09/09 05:34:25;;;;;;;10.87;9.70;;;24.10;54.40;;;;;;5011722;28;20200;-47
2021/09/09 05:36:50;;;;;;;11.00;10.00;;;24.10;54.50;;;;;;5010930;28;20325;-47
2021/09/09 05:39:16;;;;;;;13.10;10.63;;;23.90;54.90;;;;;;5011020;28;20199;-47
2021/09/09 05:41:42;;;;;;;10.13;9.20;;;23.90;55.10;;;;;;5007379;28;20286;-50
2021/09/09 05:44:07;;;;;;;11.57;9.37;;;23.90;55.20;;;;;;5008843;28;20203;-51
2021/09/09 05:46:33;;;;;;;11.03;9.97;;;23.80;55.40;;;;;;5013187;28;20232;-47
2021/09/09 05:48:58;;;;;;;10.60;9.50;;;23.70;55.50;;;;;;5012165;28;20185;-50
2021/09/09 05:51:24;;;;;;;10.47;9.50;;;23.60;55.90;;;;;;5008559;28;20801;-51
2021/09/09 05:53:50;;;;;;;11.00;10.00;;;23.60;56.20;;;;;;5009644;28;20200;-48
2021/09/09 05:56:16;;;;;;;10.87;9.93;;;23.70;55.90;;;;;;5009935;28;20271;-48
2021/09/09 05:58:41;;;;;;;11.20;10.00;;;23.70;55.90;;;;;;5004883;28;20533;-47
2021/09/09 06:01:07;;;;;;;11.87;10.67;;;23.70;55.90;;;;;;5007174;28;20442;-48
2021/09/09 06:03:35;;;;;;;11.33;10.40;;;23.70;56.10;;;;;;5006718;28;20272;-50
2021/09/09 06:06:04;;;;;;;11.67;10.57;;;23.40;57.50;;;;;;5010010;28;20193;-47
2021/09/09 06:08:31;;;;;;;12.63;11.37;;;23.00;57.90;;;;;;5012517;28;20440;-47
2021/09/09 06:10:56;;;;;;;11.97;10.87;;;22.90;58.30;;;;;;5010170;28;20457;-52
2021/09/09 06:13:22;;;;;;;11.60;10.30;;;22.70;58.90;;;;;;5012421;28;20452;-48
2021/09/09 06:15:48;;;;;;;20.10;10.80;;;22.80;58.90;;;;;;5011792;28;20194;-48
2021/09/09 06:18:13;;;;;;;11.20;10.10;;;23.00;58.60;;;;;;5011534;28;20209;-47
2021/09/09 06:20:39;;;;;;;17.60;10.67;;;23.10;58.30;;;;;;5011900;28;20558;-47
2021/09/09 06:23:04;;;;;;;11.17;10.07;;;23.10;58.20;;;;;;5009786;28;20277;-49
2021/09/09 06:25:30;;;;;;;11.10;9.90;;;23.30;57.90;;;;;;5012725;28;20198;-48
2021/09/09 06:27:56;;;;;;;11.63;10.40;;;23.60;57.20;;;;;;5008302;28;20678;-49
2021/09/09 06:30:21;;;;;;;11.30;10.10;;;23.60;57.30;;;;;;5010016;28;20696;-47
2021/09/09 06:32:47;;;;;;;12.03;10.43;;;23.90;57.20;;;;;;5010755;28;20233;-50
2021/09/09 06:35:12;;;;;;;11.40;10.40;;;23.90;56.80;;;;;;5001504;28;20197;-52
2021/09/09 06:37:39;;;;;;;11.00;10.00;;;23.90;56.90;;;;;;5012056;28;20193;-48
2021/09/09 06:40:06;;;;;;;14.33;10.53;;;24.00;56.70;;;;;;5009264;28;20722;-47
2021/09/09 06:42:32;;;;;;;10.80;9.80;;;24.20;56.40;;;;;;5005228;28;20810;-46
2021/09/09 06:44:57;;;;;;;11.43;10.30;;;24.50;56.10;;;;;;5004715;28;20437;-46
2021/09/09 06:47:23;;;;;;;10.50;9.30;;;24.70;56.00;;;;;;5008416;28;20205;-48
2021/09/09 06:49:48;;;;;;;10.93;9.90;;;24.90;55.60;;;;;;5011938;28;20194;-48
2021/09/09 06:52:15;;;;;;;10.43;9.07;;;25.00;54.90;;;;;;5010232;28;20276;-50
2021/09/09 06:54:41;;;;;;;9.80;8.90;;;25.10;54.50;;;;;;5006907;28;20260;-49
2021/09/09 06:57:07;;;;;;;10.97;9.90;;;25.20;54.50;;;;;;5003197;28;20436;-48
2021/09/09 06:59:32;;;;;;;11.60;9.60;;;24.80;55.60;;;;;;5009700;28;20752;-46
2021/09/09 07:01:58;;;;;;;13.20;10.17;;;24.90;55.60;;;;;;5001143;28;20717;-46
2021/09/09 07:04:23;;;;;;;10.50;9.47;;;25.20;55.00;;;;;;5006642;28;20620;-48
2021/09/09 07:06:49;;;;;;;11.20;9.60;;;25.40;54.90;;;;;;5006229;28;20202;-46
2021/09/09 07:09:15;;;;;;;11.40;10.30;;;25.80;54.10;;;;;;5008280;28;20692;-46
2021/09/09 07:11:40;;;;;;;11.77;10.50;;;25.90;53.50;;;;;;5000845;28;20236;-50
2021/09/09 07:14:06;;;;;;;15.53;9.23;;;26.00;53.30;;;;;;5003698;28;20194;-47
2021/09/09 07:16:31;;;;;;;9.90;8.90;;;26.10;53.50;;;;;;5004571;28;20225;-47
2021/09/09 07:18:57;;;;;;;10.30;9.40;;;26.20;53.30;;;;;;5009761;28;20244;-48
2021/09/09 07:21:22;;;;;;;12.10;10.90;;;26.30;53.00;;;;;;5012213;28;20650;-48
2021/09/09 07:23:48;;;;;;;10.57;9.43;;;26.30;53.10;;;;;;4993817;28;20548;-46
2021/09/09 07:26:14;;;;;;;10.27;9.37;;;26.50;53.10;;;;;;5000195;28;20273;-48
2021/09/09 07:28:40;;;;;;;11.30;9.10;;;26.50;52.90;;;;;;5011447;28;20204;-48
2021/09/09 07:31:05;;;;;;;10.77;9.87;;;26.70;52.60;;;;;;5001162;28;20446;-47
2021/09/09 07:33:31;;;;;;;10.20;9.20;;;26.50;52.50;;;;;;4991567;28;20234;-45
2021/09/09 07:35:57;;;;;;;10.10;9.10;;;26.50;52.30;;;;;;5005198;28;20563;-48
2021/09/09 07:38:23;;;;;;;10.77;9.67;;;26.50;52.20;;;;;;5007438;28;20198;-45
2021/09/09 07:40:48;;;;;;;10.13;8.93;;;26.60;51.90;;;;;;4992114;28;20429;-46
2021/09/09 07:43:14;;;;;;;10.40;9.20;;;26.70;52.50;;;;;;4998564;28;20217;-46
2021/09/09 07:45:40;;;;;;;10.23;9.23;;;26.80;52.10;;;;;;4991905;28;20198;-46
2021/09/09 07:48:06;;;;;;;10.70;9.80;;;27.10;52.00;;;;;;4997384;28;20202;-48
2021/09/09 07:50:31;;;;;;;9.77;8.87;;;27.10;51.90;;;;;;4991881;28;20430;-49
2021/09/09 07:52:58;;;;;;;9.77;8.87;;;27.00;51.20;;;;;;4995612;28;20292;-49
2021/09/09 07:55:24;;;;;;;10.60;9.70;;;27.00;51.70;;;;;;4997167;28;20280;-47
2021/09/09 07:57:50;;;;;;;9.60;8.80;;;27.10;50.90;;;;;;4997105;28;20522;-48
2021/09/09 08:00:15;;;;;;;10.23;9.23;;;26.90;51.20;;;;;;5011180;28;20445;-48
2021/09/09 08:02:41;;;;;;;10.33;9.53;;;27.20;51.30;;;;;;5011147;28;20263;-46
2021/09/09 08:05:08;;;;;;;10.60;9.50;;;27.20;50.80;;;;;;5014963;28;20185;-50
2021/09/09 08:07:44;;;;;;;9.60;8.70;;;27.40;51.10;;;;;;5011936;28;20200;-48
2021/09/09 08:10:13;;;;;;;9.77;8.87;;;27.90;50.50;;;;;;5015471;28;20517;-47
2021/09/09 08:12:38;;;;;;;9.17;8.10;;;28.00;48.90;;;;;;4994447;28;20487;-47
2021/09/09 08:15:04;;;;;;;8.17;7.43;;;28.30;47.70;;;;;;4995519;28;20433;-47
2021/09/09 08:17:30;;;;;;;8.67;7.87;;;28.50;46.70;;;;;;5007666;28;20329;-46
2021/09/09 08:19:55;;;;;;;8.70;7.90;;;28.50;46.40;;;;;;5001692;28;20225;-46
2021/09/09 08:22:21;;;;;;;8.53;7.60;;;28.60;46.10;;;;;;4996708;28;20186;-47
2021/09/09 08:24:47;;;;;;;8.43;7.73;;;28.80;46.30;;;;;;4999314;28;20194;-50
2021/09/09 08:27:12;;;;;;;8.43;7.40;;;28.90;45.70;;;;;;5015281;28;20230;-50
2021/09/09 08:29:38;;;;;;;9.07;8.17;;;29.00;45.50;;;;;;5014360;28;20661;-52
2021/09/09 08:32:04;;;;;;;8.57;7.87;;;29.10;45.20;;;;;;4996976;28;20285;-51
2021/09/09 08:34:29;;;;;;;8.20;7.40;;;29.10;45.60;;;;;;4994862;28;20226;-46
2021/09/09 08:36:55;;;;;;;8.80;7.93;;;29.00;45.10;;;;;;5015185;28;20228;-51
2021/09/09 08:39:20;;;;;;;8.13;7.33;;;29.00;44.50;;;;;;5000898;28;20286;-50
2021/09/09 08:41:46;;;;;;;7.77;6.60;;;29.10;44.60;;;;;;4995378;28;20195;-44
2021/09/09 08:44:12;;;;;;;8.20;7.60;;;29.10;45.10;;;;;;5006189;28;20193;-46
2021/09/09 08:46:37;;;;;;;7.93;6.87;;;29.30;44.60;;;;;;5014422;28;20209;-45
2021/09/09 08:49:03;;;;;;;8.47;7.77;;;29.40;43.60;;;;;;5014055;28;20200;-50
2021/09/09 08:51:29;;;;;;;7.80;7.10;;;29.40;44.50;;;;;;4996612;28;20276;-48
2021/09/09 08:53:56;;;;;;;8.70;7.80;;;29.50;43.60;;;;;;5002530;28;20273;-44
2021/09/09 08:56:22;;;;;;;10.20;7.70;;;29.70;43.90;;;;;;4996534;28;20198;-50
2021/09/09 08:58:48;;;;;;;8.00;7.30;;;29.90;44.00;;;;;;5003029;28;21085;-46
2021/09/09 09:01:18;;;;;;;9.27;8.47;;;30.10;43.40;;;;;;5008359;28;20762;-45
2021/09/09 09:03:55;;;;;;;8.37;7.67;;;30.30;43.70;;;;;;4993674;28;20630;-46
2021/09/09 09:06:21;;;;;;;9.67;7.53;;;30.30;43.10;;;;;;5000429;28;20492;-44
2021/09/09 09:08:51;;;;;;;9.33;8.30;;;30.50;43.10;;;;;;5005962;28;20842;-49
2021/09/09 09:11:32;;;;;;;9.13;8.10;;;30.50;42.80;;;;;;4994649;28;20208;-48
2021/09/09 09:13:58;;;;;;;8.13;7.33;;;30.70;42.60;;;;;;4999354;28;20478;-46
2021/09/09 09:16:25;;;;;;;8.50;7.77;;;30.80;42.20;;;;;;4999904;28;20511;-48
2021/09/09 09:18:51;;;;;;;8.30;7.60;;;30.60;42.80;;;;;;5009454;28;20449;-46
2021/09/09 09:21:18;;;;;;;7.90;7.17;;;30.70;42.30;;;;;;4994815;28;20429;-48
2021/09/09 09:23:51;;;;;;;8.67;7.80;;;30.80;42.00;;;;;;4999897;28;20471;-45
2021/09/09 09:26:17;;;;;;;7.63;6.87;;;30.90;42.60;;;;;;5010877;28;20440;-46
2021/09/09 09:28:49;;;;;;;7.77;6.97;;;31.10;42.30;;;;;;5011120;28;20441;-49
2021/09/09 09:31:20;;;;;;;9.13;8.23;;;31.20;41.50;;;;;;5009695;28;21118;-45
2021/09/09 09:33:50;;;;;;;8.43;7.63;;;31.30;41.50;;;;;;5008222;28;20905;-46
2021/09/09 09:36:33;;;;;;;8.33;7.53;;;31.30;42.10;;;;;;5010946;28;20453;-47
2021/09/09 09:39:15;;;;;;;7.67;6.90;;;31.40;42.80;;;;;;5011677;28;20445;-45
2021/09/09 09:41:55;;;;;;;7.83;7.13;;;31.60;41.70;;;;;;5007536;28;20945;-49
2021/09/09 09:44:30;;;;;;;7.80;7.10;;;31.80;41.30;;;;;;4997535;28;20434;-47
2021/09/09 09:47:18;;;;;;;14.73;7.13;;;31.90;40.10;;;;;;5008162;28;21023;-47
2021/09/09 09:49:46;;;;;;;7.63;6.83;;;31.80;40.10;;;;;;5012314;28;20436;-46
2021/09/09 09:52:23;;;;;;;7.07;6.47;;;31.80;40.00;;;;;;5003981;28;20560;-45
2021/09/09 09:54:56;;;;;;;8.17;7.13;;;31.70;39.60;;;;;;4998446;28;20457;-45
2021/09/09 09:57:24;;;;;;;7.80;7.20;;;31.70;39.50;;;;;;5008777;28;20787;-46
2021/09/09 09:59:50;;;;;;;7.60;6.90;;;31.70;40.00;;;;;;5012542;28;20436;-48
2021/09/09 10:02:16;;;;;;;7.37;6.67;;;31.70;40.00;;;;;;5006586;28;20684;-47
2021/09/09 10:04:44;;;;;;;7.50;6.90;;;31.80;40.30;;;;;;5001208;28;20210;-47
2021/09/09 10:07:10;;;;;;;7.77;6.23;;;31.90;39.60;;;;;;5007372;28;20187;-45
2021/09/09 10:09:38;;;;;;;7.13;6.60;;;32.00;39.30;;;;;;5012231;28;20491;-50
2021/09/09 10:12:07;;;;;;;7.83;7.17;;;32.10;39.20;;;;;;5010309;28;21011;-51
2021/09/09 10:14:34;;;;;;;7.77;6.93;;;32.20;39.00;;;;;;5011848;28;20433;-52
2021/09/09 10:17:01;;;;;;;7.30;6.60;;;32.30;39.30;;;;;;5008523;28;20445;-50
2021/09/09 10:19:32;;;;;;;10.10;8.10;;;32.40;38.40;;;;;;5005258;28;20446;-51
2021/09/09 10:22:12;;;;;;;8.73;7.57;;;32.50;38.30;;;;;;5010889;28;20531;-50
2021/09/09 10:24:45;;;;;;;8.97;7.90;;;32.50;38.50;;;;;;5000054;28;20448;-49
2021/09/09 10:27:40;;;;;;;9.33;7.27;;;32.60;38.60;;;;;;5005941;28;20531;-49
2021/09/09 10:30:15;;;;;;;8.00;7.30;;;32.60;38.60;;;;;;5004912;28;20451;-49
2021/09/09 10:32:46;;;;;;;7.83;6.83;;;32.80;38.90;;;;;;5010429;28;20601;-46
2021/09/09 10:35:23;;;;;;;7.93;7.13;;;32.90;39.00;;;;;;5011890;28;20441;-46
2021/09/09 10:37:57;;;;;;;7.57;6.97;;;33.00;38.60;;;;;;5008325;28;20528;-47
2021/09/09 10:40:30;;;;;;;8.27;7.57;;;33.10;38.30;;;;;;5012256;28;20932;-45
2021/09/09 10:43:20;;;;;;;8.17;7.43;;;33.20;37.90;;;;;;5008892;28;20445;-47
2021/09/09 10:45:46;;;;;;;7.33;6.63;;;33.30;38.10;;;;;;5010285;28;20436;-46
2021/09/09 10:48:14;;;;;;;7.77;7.10;;;33.50;38.00;;;;;;5009985;28;20519;-49
2021/09/09 10:50:40;;;;;;;8.80;6.83;;;33.70;37.80;;;;;;5015539;28;20221;-46
2021/09/09 10:53:08;;;;;;;7.80;7.20;;;33.70;37.50;;;;;;5008893;28;20496;-46
2021/09/09 10:55:40;;;;;;;7.57;6.90;;;33.60;37.50;;;;;;5008158;28;20289;-47
2021/09/09 10:58:14;;;;;;;9.27;7.17;;;33.60;37.00;;;;;;4994082;28;20473;-46
2021/09/09 11:00:54;;;;;;;7.27;6.57;;;33.70;37.50;;;;;;5007485;28;20439;-47
2021/09/09 11:03:37;;;;;;;7.73;7.07;;;33.70;37.60;;;;;;5010674;28;20452;-46
2021/09/09 11:06:08;;;;;;;7.83;7.10;;;33.70;37.30;;;;;;5011532;28;20452;-46
2021/09/09 11:08:34;;;;;;;8.80;7.70;;;33.70;37.00;;;;;;5005742;28;20425;-45
2021/09/09 11:11:00;;;;;;;7.70;6.87;;;33.80;37.10;;;;;;5011434;28;20467;-48
2021/09/09 11:13:28;;;;;;;8.27;7.53;;;33.90;37.50;;;;;;5000839;28;20230;-50
2021/09/09 11:15:53;;;;;;;6.80;6.20;;;33.80;37.10;;;;;;5009753;28;20491;-47
2021/09/09 11:18:30;;;;;;;7.90;6.83;;;33.80;37.40;;;;;;4999753;28;20430;-49
2021/09/09 11:21:04;;;;;;;7.10;6.60;;;33.80;36.90;;;;;;4994517;28;20559;-46
2021/09/09 11:23:31;;;;;;;6.83;6.33;;;34.00;36.70;;;;;;5008759;28;20437;-45
2021/09/09 11:26:18;;;;;;;7.30;6.70;;;34.00;36.60;;;;;;5009890;28;20455;-48
2021/09/09 11:28:45;;;;;;;8.47;6.60;;;34.00;36.10;;;;;;5004255;28;20516;-46
2021/09/09 11:31:21;;;;;;;6.43;5.93;;;34.20;35.70;;;;;;4997243;28;20425;-48
2021/09/09 11:34:02;;;;;;;7.87;7.17;;;34.10;36.00;;;;;;5009168;28;21306;-46
2021/09/09 11:36:37;;;;;;;7.23;6.33;;;34.20;36.20;;;;;;5005027;28;20468;-47
2021/09/09 11:39:11;;;;;;;7.37;6.77;;;34.50;35.60;;;;;;5010132;28;20444;-46
2021/09/09 11:41:38;;;;;;;6.57;5.97;;;34.20;35.40;;;;;;5011465;28;20444;-49
2021/09/09 11:44:08;;;;;;;6.63;5.93;;;34.50;35.50;;;;;;5000424;28;20434;-45
2021/09/09 11:46:38;;;;;;;8.73;6.20;;;34.50;34.50;;;;;;5010897;28;20441;-46
2021/09/09 11:49:09;;;;;;;6.30;5.70;;;34.60;34.70;;;;;;5010571;28;20504;-46
2021/09/09 11:51:38;;;;;;;6.37;5.77;;;34.80;35.00;;;;;;5009251;28;20472;-46
2021/09/09 11:54:14;;;;;;;7.83;6.50;;;34.90;34.10;;;;;;5010281;28;20435;-50
2021/09/09 11:56:40;;;;;;;6.67;6.07;;;34.90;34.10;;;;;;5001039;28;20456;-46
2021/09/09 11:59:12;;;;;;;7.40;5.73;;;34.90;34.00;;;;;;5003874;28;20476;-46
2021/09/09 12:01:39;;;;;;;6.23;5.73;;;35.00;34.50;;;;;;4999636;28;20221;-47
2021/09/09 12:04:07;;;;;;;5.93;5.30;;;34.80;34.20;;;;;;5006728;28;20991;-51
2021/09/09 12:06:36;;;;;;;7.43;5.80;;;34.60;34.20;;;;;;5007054;28;20518;-48
2021/09/09 12:09:03;;;;;;;6.50;5.87;;;34.70;34.70;;;;;;5005775;28;20436;-47
2021/09/09 12:11:29;;;;;;;6.20;5.60;;;34.80;34.50;;;;;;5010748;28;20465;-49
2021/09/09 12:13:55;;;;;;;6.57;5.97;;;34.80;34.50;;;;;;5006534;28;20436;-47
2021/09/09 12:16:32;;;;;;;7.60;5.83;;;34.80;34.80;;;;;;5008770;28;20194;-49
2021/09/09 12:19:06;;;;;;;5.90;5.40;;;34.70;35.00;;;;;;5004638;28;20202;-49
2021/09/09 12:21:31;;;;;;;5.80;5.40;;;34.60;34.60;;;;;;5008568;28;20840;-48
2021/09/09 12:24:06;;;;;;;7.63;5.77;;;34.30;34.90;;;;;;5008509;28;20439;-50
2021/09/09 12:26:34;;;;;;;6.73;5.93;;;34.20;35.50;;;;;;5007239;28;20259;-53
2021/09/09 12:29:10;;;;;;;7.40;6.70;;;34.00;35.40;;;;;;5005448;28;21200;-51
2021/09/09 12:31:36;;;;;;;5.97;5.40;;;34.00;35.50;;;;;;5001280;28;20568;-47
2021/09/09 12:34:35;;;;;;;7.00;6.30;;;33.90;35.60;;;;;;5003296;28;20852;-49
2021/09/09 12:37:14;;;;;;;7.10;6.50;;;33.90;35.40;;;;;;5007021;28;21079;-47
2021/09/09 12:39:47;;;;;;;6.17;5.57;;;33.90;35.70;;;;;;5008568;28;20436;-46
2021/09/09 12:42:12;;;;;;;6.83;6.03;;;33.70;35.10;;;;;;5007294;28;20453;-45
2021/09/09 12:44:38;;;;;;;5.70;5.17;;;33.60;35.70;;;;;;5001293;28;20491;-46